sensor_id;sensor_type;location;lat;lon;timestamp;P1;durP1;ratioP1;P2;durP2;ratioP2
43297;SDS011;28892;55.640;37.532;2023-07-13T00:02:00;5.13;;;2.63;;
43297;SDS011;28892;55.640;37.532;2023-07-13T00:04:26;5.45;;;2.45;;
43297;SDS011;28892;55.640;37.532;2023-07-13T00:06:52;2.13;;;1.92;;
43297;SDS011;28892;55.640;37.532;2023-07-13T00:09:19;2.70;;;2.20;;
43297;SDS011;28892;55.640;37.532;2023-07-13T00:11:55;2.30;;;2.10;;
43297;SDS011;28892;55.640;37.532;2023-07-13T00:14:24;2.13;;;2.00;;
43297;SDS011;28892;55.640;37.532;2023-07-13T00:16:52;2.28;;;2.03;;
43297;SDS011;28892;55.640;37.532;2023-07-13T00:19:18;3.55;;;2.20;;
43297;SDS011;28892;55.640;37.532;2023-07-13T00:21:50;3.22;;;1.95;;
43297;SDS011;28892;55.640;37.532;2023-07-13T00:24:16;3.10;;;1.92;;
43297;SDS011;28892;55.640;37.532;2023-07-13T00:26:51;2.38;;;1.77;;
43297;SDS011;28892;55.640;37.532;2023-07-13T00:29:17;4.35;;;2.20;;
43297;SDS011;28892;55.640;37.532;2023-07-13T00:31:44;2.83;;;2.05;;
43297;SDS011;28892;55.640;37.532;2023-07-13T00:34:10;2.75;;;1.88;;
43297;SDS011;28892;55.640;37.532;2023-07-13T00:36:36;3.03;;;2.38;;
43297;SDS011;28892;55.640;37.532;2023-07-13T00:39:02;2.60;;;2.40;;
43297;SDS011;28892;55.640;37.532;2023-07-13T00:41:32;3.55;;;2.08;;
43297;SDS011;28892;55.640;37.532;2023-07-13T00:43:58;2.85;;;2.53;;
43297;SDS011;28892;55.640;37.532;2023-07-13T00:46:32;3.47;;;2.30;;
43297;SDS011;28892;55.640;37.532;2023-07-13T00:49:04;3.83;;;2.50;;
43297;SDS011;28892;55.640;37.532;2023-07-13T00:51:40;2.70;;;2.13;;
43297;SDS011;28892;55.640;37.532;2023-07-13T00:54:13;3.78;;;2.28;;
43297;SDS011;28892;55.640;37.532;2023-07-13T00:56:53;4.03;;;2.10;;
43297;SDS011;28892;55.640;37.532;2023-07-13T00:59:23;2.22;;;2.00;;
43297;SDS011;28892;55.640;37.532;2023-07-13T01:01:52;4.78;;;2.22;;
43297;SDS011;28892;55.640;37.532;2023-07-13T01:04:20;2.70;;;2.13;;
43297;SDS011;28892;55.640;37.532;2023-07-13T01:06:46;3.05;;;2.20;;
43297;SDS011;28892;55.640;37.532;2023-07-13T01:09:12;3.63;;;2.28;;
43297;SDS011;28892;55.640;37.532;2023-07-13T01:11:41;3.13;;;2.10;;
43297;SDS011;28892;55.640;37.532;2023-07-13T01:14:08;3.13;;;2.22;;
43297;SDS011;28892;55.640;37.532;2023-07-13T01:16:35;2.47;;;2.22;;
43297;SDS011;28892;55.640;37.532;2023-07-13T01:19:03;2.70;;;2.50;;
43297;SDS011;28892;55.640;37.532;2023-07-13T01:21:40;3.10;;;2.40;;
43297;SDS011;28892;55.640;37.532;2023-07-13T01:24:11;2.38;;;2.05;;
43297;SDS011;28892;55.640;37.532;2023-07-13T01:26:37;3.60;;;2.70;;
43297;SDS011;28892;55.640;37.532;2023-07-13T01:29:06;2.75;;;2.40;;
43297;SDS011;28892;55.640;37.532;2023-07-13T01:31:33;2.65;;;2.45;;
43297;SDS011;28892;55.640;37.532;2023-07-13T01:33:58;3.03;;;2.63;;
43297;SDS011;28892;55.640;37.532;2023-07-13T01:36:24;2.85;;;2.58;;
43297;SDS011;28892;55.640;37.532;2023-07-13T01:38:50;2.70;;;2.03;;
43297;SDS011;28892;55.640;37.532;2023-07-13T01:41:16;3.08;;;2.50;;
43297;SDS011;28892;55.640;37.532;2023-07-13T01:43:42;2.72;;;2.20;;
43297;SDS011;28892;55.640;37.532;2023-07-13T01:46:08;3.25;;;2.20;;
43297;SDS011;28892;55.640;37.532;2023-07-13T01:48:34;4.35;;;2.75;;
43297;SDS011;28892;55.640;37.532;2023-07-13T01:51:00;3.05;;;2.47;;
43297;SDS011;28892;55.640;37.532;2023-07-13T01:53:25;4.53;;;2.72;;
43297;SDS011;28892;55.640;37.532;2023-07-13T01:55:52;2.65;;;2.45;;
43297;SDS011;28892;55.640;37.532;2023-07-13T01:58:18;2.65;;;2.45;;
43297;SDS011;28892;55.640;37.532;2023-07-13T02:00:44;3.80;;;2.53;;
43297;SDS011;28892;55.640;37.532;2023-07-13T02:03:10;2.90;;;2.60;;
43297;SDS011;28892;55.640;37.532;2023-07-13T02:05:36;6.00;;;2.67;;
43297;SDS011;28892;55.640;37.532;2023-07-13T02:08:01;3.40;;;2.90;;
43297;SDS011;28892;55.640;37.532;2023-07-13T02:10:30;2.60;;;2.40;;
43297;SDS011;28892;55.640;37.532;2023-07-13T02:13:00;2.78;;;2.35;;
43297;SDS011;28892;55.640;37.532;2023-07-13T02:15:26;6.97;;;3.03;;
43297;SDS011;28892;55.640;37.532;2023-07-13T02:17:53;3.13;;;2.78;;
43297;SDS011;28892;55.640;37.532;2023-07-13T02:20:39;2.85;;;2.65;;
43297;SDS011;28892;55.640;37.532;2023-07-13T02:23:05;4.30;;;2.90;;
43297;SDS011;28892;55.640;37.532;2023-07-13T02:25:34;3.78;;;2.53;;
43297;SDS011;28892;55.640;37.532;2023-07-13T02:28:03;2.88;;;2.60;;
43297;SDS011;28892;55.640;37.532;2023-07-13T02:30:29;4.15;;;2.78;;
43297;SDS011;28892;55.640;37.532;2023-07-13T02:32:56;4.32;;;2.75;;
43297;SDS011;28892;55.640;37.532;2023-07-13T02:35:22;3.97;;;2.85;;
43297;SDS011;28892;55.640;37.532;2023-07-13T02:37:48;4.20;;;2.45;;
43297;SDS011;28892;55.640;37.532;2023-07-13T02:40:15;6.18;;;2.53;;
43297;SDS011;28892;55.640;37.532;2023-07-13T02:42:41;3.95;;;3.03;;
43297;SDS011;28892;55.640;37.532;2023-07-13T02:45:07;3.88;;;2.55;;
43297;SDS011;28892;55.640;37.532;2023-07-13T02:47:34;5.65;;;2.85;;
43297;SDS011;28892;55.640;37.532;2023-07-13T02:50:03;5.60;;;2.60;;
43297;SDS011;28892;55.640;37.532;2023-07-13T02:52:32;6.05;;;2.63;;
43297;SDS011;28892;55.640;37.532;2023-07-13T02:54:58;4.03;;;2.60;;
43297;SDS011;28892;55.640;37.532;2023-07-13T02:57:24;4.45;;;2.80;;
43297;SDS011;28892;55.640;37.532;2023-07-13T02:59:53;3.13;;;2.80;;
43297;SDS011;28892;55.640;37.532;2023-07-13T03:02:23;5.78;;;2.92;;
43297;SDS011;28892;55.640;37.532;2023-07-13T03:04:49;3.28;;;2.67;;
43297;SDS011;28892;55.640;37.532;2023-07-13T03:07:16;2.83;;;2.47;;
43297;SDS011;28892;55.640;37.532;2023-07-13T03:09:43;4.50;;;2.90;;
43297;SDS011;28892;55.640;37.532;2023-07-13T03:12:09;3.95;;;2.60;;
43297;SDS011;28892;55.640;37.532;2023-07-13T03:14:35;2.97;;;2.70;;
43297;SDS011;28892;55.640;37.532;2023-07-13T03:17:04;2.90;;;2.60;;
43297;SDS011;28892;55.640;37.532;2023-07-13T03:19:33;3.22;;;2.60;;
43297;SDS011;28892;55.640;37.532;2023-07-13T03:22:03;2.88;;;2.58;;
43297;SDS011;28892;55.640;37.532;2023-07-13T03:24:36;3.90;;;3.10;;
43297;SDS011;28892;55.640;37.532;2023-07-13T03:27:04;3.95;;;2.60;;
43297;SDS011;28892;55.640;37.532;2023-07-13T03:29:31;5.35;;;3.15;;
43297;SDS011;28892;55.640;37.532;2023-07-13T03:31:57;3.05;;;2.17;;
43297;SDS011;28892;55.640;37.532;2023-07-13T03:34:23;4.70;;;2.58;;
43297;SDS011;28892;55.640;37.532;2023-07-13T03:36:49;2.83;;;2.33;;
43297;SDS011;28892;55.640;37.532;2023-07-13T03:39:18;2.63;;;2.42;;
43297;SDS011;28892;55.640;37.532;2023-07-13T03:41:52;4.63;;;2.85;;
43297;SDS011;28892;55.640;37.532;2023-07-13T03:44:19;7.20;;;3.35;;
43297;SDS011;28892;55.640;37.532;2023-07-13T03:46:49;3.38;;;2.65;;
43297;SDS011;28892;55.640;37.532;2023-07-13T03:49:15;3.22;;;2.80;;
43297;SDS011;28892;55.640;37.532;2023-07-13T03:51:41;4.22;;;2.70;;
43297;SDS011;28892;55.640;37.532;2023-07-13T03:54:10;4.53;;;2.75;;
43297;SDS011;28892;55.640;37.532;2023-07-13T03:56:42;5.18;;;2.80;;
43297;SDS011;28892;55.640;37.532;2023-07-13T03:59:11;5.20;;;2.50;;
43297;SDS011;28892;55.640;37.532;2023-07-13T04:01:37;5.97;;;2.88;;
43297;SDS011;28892;55.640;37.532;2023-07-13T04:04:06;2.90;;;2.25;;
43297;SDS011;28892;55.640;37.532;2023-07-13T04:06:41;3.35;;;2.55;;
43297;SDS011;28892;55.640;37.532;2023-07-13T04:09:06;3.00;;;2.70;;
43297;SDS011;28892;55.640;37.532;2023-07-13T04:11:37;3.42;;;2.20;;
43297;SDS011;28892;55.640;37.532;2023-07-13T04:14:03;2.78;;;2.58;;
43297;SDS011;28892;55.640;37.532;2023-07-13T04:16:29;3.65;;;2.40;;
43297;SDS011;28892;55.640;37.532;2023-07-13T04:18:55;2.90;;;2.53;;
43297;SDS011;28892;55.640;37.532;2023-07-13T04:21:29;3.63;;;2.92;;
43297;SDS011;28892;55.640;37.532;2023-07-13T04:23:56;3.45;;;2.50;;
43297;SDS011;28892;55.640;37.532;2023-07-13T04:26:23;5.18;;;2.70;;
43297;SDS011;28892;55.640;37.532;2023-07-13T04:28:50;5.25;;;2.70;;
43297;SDS011;28892;55.640;37.532;2023-07-13T04:31:17;4.88;;;2.97;;
43297;SDS011;28892;55.640;37.532;2023-07-13T04:33:43;3.60;;;2.22;;
43297;SDS011;28892;55.640;37.532;2023-07-13T04:36:12;4.82;;;2.67;;
43297;SDS011;28892;55.640;37.532;2023-07-13T04:38:38;3.50;;;2.88;;
43297;SDS011;28892;55.640;37.532;2023-07-13T04:41:06;3.67;;;2.80;;
43297;SDS011;28892;55.640;37.532;2023-07-13T04:43:33;3.97;;;2.60;;
43297;SDS011;28892;55.640;37.532;2023-07-13T04:46:05;5.15;;;3.05;;
43297;SDS011;28892;55.640;37.532;2023-07-13T04:48:41;4.35;;;2.03;;
43297;SDS011;28892;55.640;37.532;2023-07-13T04:51:07;5.45;;;3.08;;
43297;SDS011;28892;55.640;37.532;2023-07-13T04:53:33;4.68;;;2.90;;
43297;SDS011;28892;55.640;37.532;2023-07-13T04:56:00;5.13;;;2.80;;
43297;SDS011;28892;55.640;37.532;2023-07-13T04:58:26;3.08;;;2.60;;
43297;SDS011;28892;55.640;37.532;2023-07-13T05:00:52;4.97;;;3.22;;
43297;SDS011;28892;55.640;37.532;2023-07-13T05:03:24;3.67;;;2.75;;
43297;SDS011;28892;55.640;37.532;2023-07-13T05:05:57;4.82;;;2.80;;
43297;SDS011;28892;55.640;37.532;2023-07-13T05:08:24;5.35;;;2.65;;
43297;SDS011;28892;55.640;37.532;2023-07-13T05:10:51;3.92;;;2.58;;
43297;SDS011;28892;55.640;37.532;2023-07-13T05:13:17;4.43;;;2.60;;
43297;SDS011;28892;55.640;37.532;2023-07-13T05:15:43;4.93;;;2.78;;
43297;SDS011;28892;55.640;37.532;2023-07-13T05:18:09;5.05;;;2.90;;
43297;SDS011;28892;55.640;37.532;2023-07-13T05:20:35;3.85;;;2.72;;
43297;SDS011;28892;55.640;37.532;2023-07-13T05:23:00;3.55;;;2.78;;
43297;SDS011;28892;55.640;37.532;2023-07-13T05:25:26;5.90;;;2.83;;
43297;SDS011;28892;55.640;37.532;2023-07-13T05:27:52;2.92;;;2.60;;
43297;SDS011;28892;55.640;37.532;2023-07-13T05:30:18;2.83;;;2.28;;
43297;SDS011;28892;55.640;37.532;2023-07-13T05:32:44;2.75;;;2.55;;
43297;SDS011;28892;55.640;37.532;2023-07-13T05:35:11;5.50;;;2.67;;
43297;SDS011;28892;55.640;37.532;2023-07-13T05:37:37;3.63;;;2.75;;
43297;SDS011;28892;55.640;37.532;2023-07-13T05:40:03;6.13;;;3.10;;
43297;SDS011;28892;55.640;37.532;2023-07-13T05:42:29;4.38;;;2.63;;
43297;SDS011;28892;55.640;37.532;2023-07-13T05:44:56;3.38;;;2.65;;
43297;SDS011;28892;55.640;37.532;2023-07-13T05:47:24;3.30;;;2.45;;
43297;SDS011;28892;55.640;37.532;2023-07-13T05:49:50;3.70;;;2.80;;
43297;SDS011;28892;55.640;37.532;2023-07-13T05:52:19;4.00;;;2.40;;
43297;SDS011;28892;55.640;37.532;2023-07-13T05:54:45;5.38;;;2.90;;
43297;SDS011;28892;55.640;37.532;2023-07-13T05:57:10;3.60;;;2.58;;
43297;SDS011;28892;55.640;37.532;2023-07-13T05:59:36;4.13;;;2.60;;
43297;SDS011;28892;55.640;37.532;2023-07-13T06:02:02;6.43;;;2.67;;
43297;SDS011;28892;55.640;37.532;2023-07-13T06:04:28;2.67;;;2.38;;
43297;SDS011;28892;55.640;37.532;2023-07-13T06:06:54;4.25;;;2.63;;
43297;SDS011;28892;55.640;37.532;2023-07-13T06:09:20;4.15;;;2.67;;
43297;SDS011;28892;55.640;37.532;2023-07-13T06:11:45;4.10;;;2.40;;
43297;SDS011;28892;55.640;37.532;2023-07-13T06:14:14;4.15;;;2.72;;
43297;SDS011;28892;55.640;37.532;2023-07-13T06:16:40;4.03;;;2.58;;
43297;SDS011;28892;55.640;37.532;2023-07-13T06:19:06;6.38;;;2.67;;
43297;SDS011;28892;55.640;37.532;2023-07-13T06:21:32;4.10;;;2.10;;
43297;SDS011;28892;55.640;37.532;2023-07-13T06:23:58;3.17;;;2.40;;
43297;SDS011;28892;55.640;37.532;2023-07-13T06:26:24;1.73;;;1.63;;
43297;SDS011;28892;55.640;37.532;2023-07-13T06:28:50;2.92;;;2.50;;
43297;SDS011;28892;55.640;37.532;2023-07-13T06:31:16;4.40;;;2.55;;
43297;SDS011;28892;55.640;37.532;2023-07-13T06:33:41;3.83;;;2.33;;
43297;SDS011;28892;55.640;37.532;2023-07-13T06:36:10;3.33;;;2.35;;
43297;SDS011;28892;55.640;37.532;2023-07-13T06:38:36;2.40;;;2.03;;
43297;SDS011;28892;55.640;37.532;2023-07-13T06:41:03;6.72;;;2.38;;
43297;SDS011;28892;55.640;37.532;2023-07-13T06:43:32;2.92;;;2.17;;
43297;SDS011;28892;55.640;37.532;2023-07-13T06:45:58;4.75;;;2.50;;
43297;SDS011;28892;55.640;37.532;2023-07-13T06:48:23;4.68;;;2.58;;
43297;SDS011;28892;55.640;37.532;2023-07-13T06:50:50;3.55;;;2.38;;
43297;SDS011;28892;55.640;37.532;2023-07-13T06:53:17;4.88;;;2.75;;
43297;SDS011;28892;55.640;37.532;2023-07-13T06:55:44;4.60;;;2.28;;
43297;SDS011;28892;55.640;37.532;2023-07-13T06:58:16;5.07;;;2.38;;
43297;SDS011;28892;55.640;37.532;2023-07-13T07:00:44;5.82;;;2.30;;
43297;SDS011;28892;55.640;37.532;2023-07-13T07:03:10;3.00;;;2.47;;
43297;SDS011;28892;55.640;37.532;2023-07-13T07:05:35;5.00;;;2.80;;
43297;SDS011;28892;55.640;37.532;2023-07-13T07:08:01;4.32;;;2.30;;
43297;SDS011;28892;55.640;37.532;2023-07-13T07:10:32;3.28;;;2.55;;
43297;SDS011;28892;55.640;37.532;2023-07-13T07:12:59;3.15;;;2.30;;
43297;SDS011;28892;55.640;37.532;2023-07-13T07:15:25;3.13;;;2.10;;
43297;SDS011;28892;55.640;37.532;2023-07-13T07:17:52;5.00;;;2.50;;
43297;SDS011;28892;55.640;37.532;2023-07-13T07:20:18;4.82;;;2.65;;
43297;SDS011;28892;55.640;37.532;2023-07-13T07:22:44;4.18;;;2.65;;
43297;SDS011;28892;55.640;37.532;2023-07-13T07:25:10;4.50;;;2.25;;
43297;SDS011;28892;55.640;37.532;2023-07-13T07:27:38;3.13;;;2.40;;
43297;SDS011;28892;55.640;37.532;2023-07-13T07:30:09;3.22;;;2.45;;
43297;SDS011;28892;55.640;37.532;2023-07-13T07:32:36;3.55;;;2.20;;
43297;SDS011;28892;55.640;37.532;2023-07-13T07:35:02;3.88;;;2.40;;
43297;SDS011;28892;55.640;37.532;2023-07-13T07:37:29;5.82;;;2.50;;
43297;SDS011;28892;55.640;37.532;2023-07-13T07:39:54;3.72;;;2.63;;
43297;SDS011;28892;55.640;37.532;2023-07-13T07:42:22;4.10;;;2.25;;
43297;SDS011;28892;55.640;37.532;2023-07-13T07:44:50;3.70;;;2.40;;
43297;SDS011;28892;55.640;37.532;2023-07-13T07:47:16;7.30;;;2.58;;
43297;SDS011;28892;55.640;37.532;2023-07-13T07:49:42;5.13;;;2.38;;
43297;SDS011;28892;55.640;37.532;2023-07-13T07:52:08;4.38;;;2.70;;
43297;SDS011;28892;55.640;37.532;2023-07-13T07:54:34;3.72;;;2.67;;
43297;SDS011;28892;55.640;37.532;2023-07-13T07:57:00;4.93;;;2.40;;
43297;SDS011;28892;55.640;37.532;2023-07-13T07:59:25;6.03;;;2.55;;
43297;SDS011;28892;55.640;37.532;2023-07-13T08:01:51;4.97;;;2.60;;
43297;SDS011;28892;55.640;37.532;2023-07-13T08:04:17;4.22;;;2.97;;
43297;SDS011;28892;55.640;37.532;2023-07-13T08:06:43;7.80;;;2.60;;
43297;SDS011;28892;55.640;37.532;2023-07-13T08:09:09;6.07;;;2.65;;
43297;SDS011;28892;55.640;37.532;2023-07-13T08:11:35;4.43;;;2.50;;
43297;SDS011;28892;55.640;37.532;2023-07-13T08:14:04;4.95;;;2.53;;
43297;SDS011;28892;55.640;37.532;2023-07-13T08:16:30;6.80;;;2.75;;
43297;SDS011;28892;55.640;37.532;2023-07-13T08:18:58;3.60;;;2.45;;
43297;SDS011;28892;55.640;37.532;2023-07-13T08:21:26;3.55;;;1.95;;
43297;SDS011;28892;55.640;37.532;2023-07-13T08:23:52;5.97;;;2.25;;
43297;SDS011;28892;55.640;37.532;2023-07-13T08:26:18;4.65;;;2.30;;
43297;SDS011;28892;55.640;37.532;2023-07-13T08:28:44;3.17;;;1.95;;
43297;SDS011;28892;55.640;37.532;2023-07-13T08:31:09;3.63;;;2.20;;
43297;SDS011;28892;55.640;37.532;2023-07-13T08:33:35;2.80;;;2.20;;
43297;SDS011;28892;55.640;37.532;2023-07-13T08:36:06;4.22;;;2.95;;
43297;SDS011;28892;55.640;37.532;2023-07-13T08:38:32;5.35;;;2.80;;
43297;SDS011;28892;55.640;37.532;2023-07-13T08:41:03;4.75;;;2.78;;
43297;SDS011;28892;55.640;37.532;2023-07-13T08:43:37;3.20;;;2.60;;
43297;SDS011;28892;55.640;37.532;2023-07-13T08:46:18;3.15;;;2.63;;
43297;SDS011;28892;55.640;37.532;2023-07-13T08:48:52;3.63;;;2.60;;
43297;SDS011;28892;55.640;37.532;2023-07-13T08:54:26;5.78;;;3.00;;
43297;SDS011;28892;55.640;37.532;2023-07-13T08:56:56;4.45;;;3.10;;
43297;SDS011;28892;55.640;37.532;2023-07-13T08:59:27;3.70;;;3.10;;
43297;SDS011;28892;55.640;37.532;2023-07-13T09:04:32;4.80;;;3.15;;
43297;SDS011;28892;55.640;37.532;2023-07-13T09:07:13;6.70;;;3.53;;
43297;SDS011;28892;55.640;37.532;2023-07-13T09:10:11;5.90;;;3.20;;
43297;SDS011;28892;55.640;37.532;2023-07-13T09:12:45;3.97;;;2.95;;
43297;SDS011;28892;55.640;37.532;2023-07-13T09:15:40;4.72;;;3.10;;
43297;SDS011;28892;55.640;37.532;2023-07-13T09:21:04;4.90;;;3.40;;
43297;SDS011;28892;55.640;37.532;2023-07-13T09:23:56;5.00;;;3.00;;
43297;SDS011;28892;55.640;37.532;2023-07-13T09:26:27;5.88;;;3.30;;
43297;SDS011;28892;55.640;37.532;2023-07-13T09:28:57;2.90;;;2.60;;
43297;SDS011;28892;55.640;37.532;2023-07-13T09:31:45;6.13;;;3.13;;
43297;SDS011;28892;55.640;37.532;2023-07-13T09:34:17;6.43;;;3.15;;
43297;SDS011;28892;55.640;37.532;2023-07-13T09:36:43;3.70;;;3.15;;
43297;SDS011;28892;55.640;37.532;2023-07-13T09:39:13;5.22;;;3.25;;
43297;SDS011;28892;55.640;37.532;2023-07-13T09:41:57;5.88;;;3.00;;
43297;SDS011;28892;55.640;37.532;2023-07-13T09:46:57;4.30;;;3.47;;
43297;SDS011;28892;55.640;37.532;2023-07-13T09:49:27;3.75;;;2.95;;
43297;SDS011;28892;55.640;37.532;2023-07-13T09:52:02;3.63;;;3.10;;
43297;SDS011;28892;55.640;37.532;2023-07-13T09:54:32;4.95;;;2.53;;
43297;SDS011;28892;55.640;37.532;2023-07-13T09:57:00;3.85;;;3.35;;
43297;SDS011;28892;55.640;37.532;2023-07-13T09:59:31;4.80;;;3.17;;
43297;SDS011;28892;55.640;37.532;2023-07-13T10:01:59;4.68;;;3.15;;
43297;SDS011;28892;55.640;37.532;2023-07-13T10:04:31;5.53;;;3.50;;
43297;SDS011;28892;55.640;37.532;2023-07-13T10:07:05;7.25;;;3.63;;
43297;SDS011;28892;55.640;37.532;2023-07-13T10:09:32;4.22;;;3.10;;
43297;SDS011;28892;55.640;37.532;2023-07-13T10:11:58;5.30;;;2.95;;
43297;SDS011;28892;55.640;37.532;2023-07-13T10:14:27;6.07;;;3.85;;
43297;SDS011;28892;55.640;37.532;2023-07-13T10:17:00;3.95;;;3.38;;
43297;SDS011;28892;55.640;37.532;2023-07-13T10:19:31;5.20;;;3.40;;
43297;SDS011;28892;55.640;37.532;2023-07-13T10:22:00;6.15;;;3.40;;
43297;SDS011;28892;55.640;37.532;2023-07-13T10:24:33;5.47;;;3.60;;
43297;SDS011;28892;55.640;37.532;2023-07-13T10:29:38;4.80;;;3.30;;
43297;SDS011;28892;55.640;37.532;2023-07-13T10:32:09;6.25;;;3.40;;
43297;SDS011;28892;55.640;37.532;2023-07-13T10:34:36;5.53;;;3.70;;
43297;SDS011;28892;55.640;37.532;2023-07-13T10:37:03;6.80;;;3.55;;
43297;SDS011;28892;55.640;37.532;2023-07-13T10:39:41;6.03;;;3.72;;
43297;SDS011;28892;55.640;37.532;2023-07-13T10:42:30;6.25;;;3.50;;
43297;SDS011;28892;55.640;37.532;2023-07-13T10:45:00;5.85;;;3.50;;
43297;SDS011;28892;55.640;37.532;2023-07-13T10:47:29;5.45;;;3.53;;
43297;SDS011;28892;55.640;37.532;2023-07-13T10:49:57;4.60;;;3.72;;
43297;SDS011;28892;55.640;37.532;2023-07-13T10:52:52;4.47;;;3.45;;
43297;SDS011;28892;55.640;37.532;2023-07-13T10:55:38;5.07;;;3.88;;
43297;SDS011;28892;55.640;37.532;2023-07-13T10:58:12;7.22;;;3.65;;
43297;SDS011;28892;55.640;37.532;2023-07-13T11:00:44;5.00;;;3.53;;
43297;SDS011;28892;55.640;37.532;2023-07-13T11:03:16;4.85;;;3.50;;
43297;SDS011;28892;55.640;37.532;2023-07-13T11:05:50;9.00;;;3.70;;
43297;SDS011;28892;55.640;37.532;2023-07-13T11:08:34;5.72;;;4.13;;
43297;SDS011;28892;55.640;37.532;2023-07-13T11:11:03;4.47;;;3.78;;
43297;SDS011;28892;55.640;37.532;2023-07-13T11:18:44;5.20;;;2.88;;
43297;SDS011;28892;55.640;37.532;2023-07-13T11:21:14;4.90;;;4.05;;
43297;SDS011;28892;55.640;37.532;2023-07-13T11:23:43;7.28;;;3.95;;
43297;SDS011;28892;55.640;37.532;2023-07-13T11:29:18;5.37;;;2.90;;
43297;SDS011;28892;55.640;37.532;2023-07-13T11:31:57;5.80;;;3.50;;
43297;SDS011;28892;55.640;37.532;2023-07-13T11:34:27;6.68;;;3.30;;
43297;SDS011;28892;55.640;37.532;2023-07-13T11:36:57;5.38;;;3.10;;
43297;SDS011;28892;55.640;37.532;2023-07-13T11:39:31;4.80;;;3.20;;
43297;SDS011;28892;55.640;37.532;2023-07-13T11:42:05;5.78;;;3.30;;
43297;SDS011;28892;55.640;37.532;2023-07-13T11:44:34;5.93;;;3.47;;
43297;SDS011;28892;55.640;37.532;2023-07-13T11:47:10;6.45;;;3.35;;
43297;SDS011;28892;55.640;37.532;2023-07-13T11:49:43;5.38;;;3.15;;
43297;SDS011;28892;55.640;37.532;2023-07-13T11:55:03;7.88;;;3.58;;
43297;SDS011;28892;55.640;37.532;2023-07-13T11:57:42;4.38;;;3.00;;
43297;SDS011;28892;55.640;37.532;2023-07-13T12:02:42;4.85;;;2.85;;
43297;SDS011;28892;55.640;37.532;2023-07-13T12:05:11;4.75;;;3.35;;
43297;SDS011;28892;55.640;37.532;2023-07-13T12:07:40;3.58;;;3.28;;
43297;SDS011;28892;55.640;37.532;2023-07-13T12:12:52;3.95;;;3.45;;
43297;SDS011;28892;55.640;37.532;2023-07-13T12:15:21;7.63;;;3.63;;
43297;SDS011;28892;55.640;37.532;2023-07-13T12:17:48;4.88;;;3.53;;
43297;SDS011;28892;55.640;37.532;2023-07-13T12:20:17;5.18;;;3.00;;
43297;SDS011;28892;55.640;37.532;2023-07-13T12:22:47;5.60;;;3.05;;
43297;SDS011;28892;55.640;37.532;2023-07-13T12:25:15;5.75;;;3.08;;
43297;SDS011;28892;55.640;37.532;2023-07-13T12:27:45;5.30;;;3.28;;
43297;SDS011;28892;55.640;37.532;2023-07-13T12:32:58;4.95;;;3.40;;
43297;SDS011;28892;55.640;37.532;2023-07-13T12:35:28;4.82;;;3.38;;
43297;SDS011;28892;55.640;37.532;2023-07-13T12:37:59;4.80;;;2.97;;
43297;SDS011;28892;55.640;37.532;2023-07-13T12:40:33;4.93;;;2.80;;
43297;SDS011;28892;55.640;37.532;2023-07-13T12:43:00;5.65;;;2.83;;
43297;SDS011;28892;55.640;37.532;2023-07-13T12:45:30;6.07;;;3.25;;
43297;SDS011;28892;55.640;37.532;2023-07-13T12:48:03;3.92;;;3.35;;
43297;SDS011;28892;55.640;37.532;2023-07-13T12:50:38;3.05;;;2.50;;
43297;SDS011;28892;55.640;37.532;2023-07-13T12:53:12;4.53;;;3.40;;
43297;SDS011;28892;55.640;37.532;2023-07-13T12:55:53;6.25;;;3.17;;
43297;SDS011;28892;55.640;37.532;2023-07-13T12:58:31;4.68;;;3.00;;
43297;SDS011;28892;55.640;37.532;2023-07-13T13:01:04;5.25;;;3.58;;
43297;SDS011;28892;55.640;37.532;2023-07-13T13:03:32;5.60;;;3.25;;
43297;SDS011;28892;55.640;37.532;2023-07-13T13:06:01;5.88;;;3.20;;
43297;SDS011;28892;55.640;37.532;2023-07-13T13:08:29;5.68;;;3.60;;
43297;SDS011;28892;55.640;37.532;2023-07-13T13:10:59;5.00;;;3.20;;
43297;SDS011;28892;55.640;37.532;2023-07-13T13:13:25;4.63;;;3.30;;
43297;SDS011;28892;55.640;37.532;2023-07-13T13:15:51;4.97;;;3.58;;
43297;SDS011;28892;55.640;37.532;2023-07-13T13:18:18;5.25;;;3.13;;
43297;SDS011;28892;55.640;37.532;2023-07-13T13:20:45;4.57;;;3.35;;
43297;SDS011;28892;55.640;37.532;2023-07-13T13:23:15;7.03;;;3.70;;
43297;SDS011;28892;55.640;37.532;2023-07-13T13:25:43;7.90;;;3.38;;
43297;SDS011;28892;55.640;37.532;2023-07-13T13:28:13;5.75;;;3.70;;
43297;SDS011;28892;55.640;37.532;2023-07-13T13:30:46;4.70;;;3.33;;
43297;SDS011;28892;55.640;37.532;2023-07-13T13:33:15;6.50;;;3.10;;
43297;SDS011;28892;55.640;37.532;2023-07-13T13:35:44;5.63;;;3.60;;
43297;SDS011;28892;55.640;37.532;2023-07-13T13:41:20;7.00;;;3.55;;
43297;SDS011;28892;55.640;37.532;2023-07-13T13:43:46;5.65;;;3.55;;
43297;SDS011;28892;55.640;37.532;2023-07-13T13:46:22;6.78;;;3.65;;
43297;SDS011;28892;55.640;37.532;2023-07-13T13:48:50;6.28;;;3.83;;
43297;SDS011;28892;55.640;37.532;2023-07-13T13:51:24;6.63;;;3.78;;
43297;SDS011;28892;55.640;37.532;2023-07-13T13:53:55;5.10;;;3.45;;
43297;SDS011;28892;55.640;37.532;2023-07-13T13:56:23;8.15;;;3.70;;
43297;SDS011;28892;55.640;37.532;2023-07-13T13:58:50;5.63;;;3.80;;
43297;SDS011;28892;55.640;37.532;2023-07-13T14:01:17;8.02;;;3.78;;
43297;SDS011;28892;55.640;37.532;2023-07-13T14:03:46;6.32;;;3.42;;
43297;SDS011;28892;55.640;37.532;2023-07-13T14:06:14;3.90;;;3.25;;
43297;SDS011;28892;55.640;37.532;2023-07-13T14:08:41;5.70;;;3.40;;
43297;SDS011;28892;55.640;37.532;2023-07-13T14:11:11;4.25;;;3.13;;
43297;SDS011;28892;55.640;37.532;2023-07-13T14:13:50;5.72;;;3.05;;
43297;SDS011;28892;55.640;37.532;2023-07-13T14:16:21;4.25;;;3.22;;
43297;SDS011;28892;55.640;37.532;2023-07-13T14:18:55;5.65;;;2.97;;
43297;SDS011;28892;55.640;37.532;2023-07-13T14:21:24;5.78;;;3.10;;
43297;SDS011;28892;55.640;37.532;2023-07-13T14:23:50;3.92;;;2.95;;
43297;SDS011;28892;55.640;37.532;2023-07-13T14:26:23;5.35;;;3.22;;
43297;SDS011;28892;55.640;37.532;2023-07-13T14:28:54;4.78;;;3.40;;
43297;SDS011;28892;55.640;37.532;2023-07-13T14:31:25;5.07;;;2.97;;
43297;SDS011;28892;55.640;37.532;2023-07-13T14:33:59;3.42;;;2.60;;
43297;SDS011;28892;55.640;37.532;2023-07-13T14:36:39;3.65;;;3.25;;
43297;SDS011;28892;55.640;37.532;2023-07-13T14:39:12;5.05;;;3.50;;
43297;SDS011;28892;55.640;37.532;2023-07-13T14:41:50;9.60;;;3.40;;
43297;SDS011;28892;55.640;37.532;2023-07-13T14:44:28;4.60;;;3.00;;
43297;SDS011;28892;55.640;37.532;2023-07-13T14:46:59;6.18;;;3.13;;
43297;SDS011;28892;55.640;37.532;2023-07-13T14:52:24;5.88;;;3.60;;
43297;SDS011;28892;55.640;37.532;2023-07-13T14:54:51;4.63;;;3.30;;
43297;SDS011;28892;55.640;37.532;2023-07-13T14:57:18;8.82;;;3.42;;
43297;SDS011;28892;55.640;37.532;2023-07-13T14:59:47;7.20;;;3.72;;
43297;SDS011;28892;55.640;37.532;2023-07-13T15:04:53;4.32;;;3.17;;
43297;SDS011;28892;55.640;37.532;2023-07-13T15:07:20;5.88;;;3.25;;
43297;SDS011;28892;55.640;37.532;2023-07-13T15:09:46;5.97;;;3.33;;
43297;SDS011;28892;55.640;37.532;2023-07-13T15:12:16;6.15;;;3.10;;
43297;SDS011;28892;55.640;37.532;2023-07-13T15:14:42;4.45;;;3.20;;
43297;SDS011;28892;55.640;37.532;2023-07-13T15:17:27;5.53;;;3.17;;
43297;SDS011;28892;55.640;37.532;2023-07-13T15:22:56;6.55;;;3.45;;
43297;SDS011;28892;55.640;37.532;2023-07-13T15:25:23;5.75;;;3.63;;
43297;SDS011;28892;55.640;37.532;2023-07-13T15:28:07;5.90;;;3.35;;
43297;SDS011;28892;55.640;37.532;2023-07-13T15:30:43;4.60;;;3.05;;